tititudorancea.com
Station Historical Data
Daily Summary for June 29, 2018 Units:  Metric    English   Both
« Previous Day
Next Day »
Daily Weekly Monthly Yearly Custom
  High: Low: Average:
Temperature: -17.8 °C 5.2 °C 7.9 °C
Dew Point: -17.8 °C 4.4 °C 5.3 °C
Humidity: Humidity % 66 % 85 %
Wind Speed: 0 km/h 5.6 km/h 17.9 km/h
Wind Gust: 0 km/h - -
Wind:- - ESE
Pressure: 0 hPa 1012.8 hPa -
Precipitation: 1.27 mm    
Historical Graphs
 
 
Ararat weather Find more about Weather in Ararat, AU


 



 


Tabular Data for June 29, 2018
Time Temperature Dew Point Pressure Wind Wind Speed Wind Gust Humidity Rainfall Rate (Hourly)
-17.8 °C -17.8 °C 0 hPa Calm     Humidity % 0 mm
00:04 6.2 °C 5.3 °C 1019.5 hPa ESE 14.8 km/h 10.1 km/h 94 % 0 mm
00:09 6.2 °C 5.3 °C 1019.5 hPa ESE 9.3 km/h 4.3 km/h 94 % 0 mm
00:14 6.2 °C 5.3 °C 1019.5 hPa ESE 13 km/h 9.3 km/h 94 % 0 mm
00:19 6.2 °C 5.3 °C 1019.5 hPa ESE 11.1 km/h 8.7 km/h 94 % 0 mm
00:24 6.2 °C 5.3 °C 1019.2 hPa ESE 12.9 km/h 8.5 km/h 94 % 0 mm
00:29 6.2 °C 5.3 °C 1019.2 hPa ESE 11.1 km/h 9.2 km/h 94 % 0 mm
00:32 6.2 °C 5.3 °C 1019.2 hPa ESE 9.3 km/h 5 km/h 94 % 0 mm
00:44 6.2 °C 5.3 °C 1018.8 hPa East 11.1 km/h 9.2 km/h 94 % 0 mm
00:49 6.2 °C 5.3 °C 1018.8 hPa East 13 km/h 8.9 km/h 94 % 0 mm
00:54 6.1 °C 5.2 °C 1018.8 hPa East 9.3 km/h 7.4 km/h 94 % 0 mm
00:59 6.1 °C 5.4 °C 1018.8 hPa East 6.4 km/h 6 km/h 95 % 0 mm
01:04 6.1 °C 5.4 °C 1018.8 hPa East 7.4 km/h 3.9 km/h 95 % 0 mm
01:09 6.1 °C 5.4 °C 1018.5 hPa East 9.3 km/h 8.4 km/h 95 % 0 mm
01:14 6.1 °C 5.4 °C 1018.5 hPa East 7.4 km/h 7.1 km/h 95 % 0 mm
01:19 5.9 °C 5.1 °C 1018.5 hPa East 7.4 km/h 7.1 km/h 94 % 0 mm
01:24 5.8 °C 5.1 °C 1018.5 hPa ESE 14.8 km/h 7.9 km/h 95 % 0 mm
01:29 5.8 °C 5.1 °C 1018.5 hPa East 8 km/h 6.3 km/h 95 % 0 mm
01:34 5.7 °C 5 °C 1018.2 hPa East 7.4 km/h 6.4 km/h 95 % 0 mm
01:39 5.7 °C 5 °C 1018.5 hPa ESE 11.3 km/h 8 km/h 95 % 0 mm
01:44 5.7 °C 5 °C 1018.2 hPa East 11.1 km/h 7.2 km/h 95 % 0 mm
01:49 5.7 °C 5 °C 1018.5 hPa East 11.1 km/h 8.9 km/h 95 % 0 mm
01:54 5.7 °C 4.9 °C 1018.5 hPa East 8 km/h 7.6 km/h 95 % 0 mm
01:59 5.7 °C 4.9 °C 1018.5 hPa East 9.7 km/h 7.9 km/h 95 % 0 mm
02:04 5.6 °C 4.9 °C 1018.5 hPa East 7.4 km/h 4.8 km/h 95 % 0 mm
02:09 5.6 °C 4.9 °C 1018.5 hPa ESE 11.3 km/h 4.2 km/h 95 % 0 mm
02:14 5.8 °C 5.1 °C 1018.5 hPa East 11.1 km/h 8.4 km/h 95 % 0 mm
02:19 6 °C 5.3 °C 1018.5 hPa East 14.8 km/h 9.2 km/h 95 % 0 mm
02:24 6.1 °C 5.3 °C 1018.5 hPa East 11.1 km/h 6.1 km/h 95 % 0 mm
02:29 6 °C 5.3 °C 1018.5 hPa ENE 18.5 km/h 7.7 km/h 95 % 0 mm
02:34 6.1 °C 5.3 °C 1018.5 hPa ENE 11.1 km/h 7.7 km/h 95 % 0 mm
02:39 6.1 °C 5.3 °C 1018.5 hPa ENE 11.3 km/h 8.9 km/h 95 % 0 mm
02:44 6.1 °C 5.3 °C 1018.2 hPa ENE 9.3 km/h 9 km/h 95 % 0 mm
02:49 6.1 °C 5.3 °C 1018.2 hPa ENE 18.5 km/h 10.5 km/h 95 % 0 mm
02:54 6.1 °C 5.3 °C 1018.2 hPa ENE 9.7 km/h 6.9 km/h 95 % 0 mm
02:59 6.1 °C 5.3 °C 1018.2 hPa ENE 11.1 km/h 6.6 km/h 95 % 0 mm
03:04 6.1 °C 5.4 °C 1018.2 hPa ENE 8 km/h 6.1 km/h 95 % 0 mm
03:09 6.1 °C 5.4 °C 1017.8 hPa ENE 13 km/h 5.5 km/h 95 % 0 mm
03:14 6.1 °C 5.4 °C 1018.2 hPa ENE 11.1 km/h 6.8 km/h 95 % 0 mm
03:19 6.2 °C 5.4 °C 1017.8 hPa ENE 11.1 km/h 7.6 km/h 95 % 0 mm
03:24 6.2 °C 5.4 °C 1017.8 hPa ENE 11.1 km/h 6.4 km/h 95 % 0 mm
03:29 6.3 °C 5.7 °C 1017.8 hPa ENE 8 km/h 8.9 km/h 96 % 0 mm
03:34 6.3 °C 5.6 °C 1017.8 hPa ENE 11.1 km/h 7.4 km/h 95 % 0 mm
03:39 6.4 °C 5.8 °C 1017.8 hPa ENE 16.7 km/h 8.5 km/h 96 % 0 mm
03:44 6.5 °C 5.9 °C 1017.8 hPa ENE 11.1 km/h 6.8 km/h 96 % 0 mm
03:49 6.6 °C 6 °C 1017.8 hPa NE 16.7 km/h 11.4 km/h 96 % 0 mm
03:54 6.7 °C 6.1 °C 1017.8 hPa NNE 12.9 km/h 12.1 km/h 96 % 0 mm
03:59 6.7 °C 6.1 °C 1017.8 hPa NNE 14.8 km/h 10.9 km/h 96 % 0 mm
04:04 6.7 °C 6.1 °C 1017.8 hPa NNE 14.8 km/h 10.8 km/h 96 % 0 mm
04:09 6.7 °C 6.1 °C 1017.8 hPa NNE 14.8 km/h 10 km/h 96 % 0 mm
04:14 6.7 °C 6.1 °C 1017.8 hPa NNE 11.1 km/h 7.6 km/h 96 % 0 mm
04:19 6.7 °C 6.1 °C 1017.8 hPa NNE 14.8 km/h 8.7 km/h 96 % 0 mm
04:24 6.6 °C 5.9 °C 1017.8 hPa North 13 km/h 8.7 km/h 95 % 0 mm
04:29 6.6 °C 5.8 °C 1017.8 hPa North 11.1 km/h 7.6 km/h 95 % 0 mm
04:34 6.6 °C 5.8 °C 1017.8 hPa North 13 km/h 9.3 km/h 95 % 0 mm
04:39 6.4 °C 5.7 °C 1017.8 hPa North 16.7 km/h 7.6 km/h 95 % 0 mm
04:44 6.4 °C 5.7 °C 1018.2 hPa North 9.3 km/h 10.1 km/h 95 % 0 mm
04:49 6.3 °C 5.6 °C 1018.2 hPa North 9.3 km/h 7.2 km/h 95 % 0 mm
04:54 6.3 °C 5.6 °C 1017.8 hPa North 11.3 km/h 9.8 km/h 95 % 0 mm
04:59 6.2 °C 5.5 °C 1017.8 hPa North 9.3 km/h 6.3 km/h 95 % 0 mm
05:04 6.2 °C 5.5 °C 1017.8 hPa North 16.7 km/h 8.9 km/h 95 % 0 mm
05:09 6.2 °C 5.4 °C 1017.8 hPa North 11.1 km/h 7.9 km/h 95 % 0 mm
05:14 6.2 °C 5.4 °C 1017.8 hPa North 13 km/h 6 km/h 95 % 0 mm
05:19 6.2 °C 5.4 °C 1017.8 hPa North 7.4 km/h 5 km/h 95 % 0 mm
05:24 6.1 °C 5.4 °C 1017.8 hPa North 9.3 km/h 6.3 km/h 95 % 0 mm
05:29 6.1 °C 5.4 °C 1017.8 hPa North 6.4 km/h 5.6 km/h 95 % 0 mm
05:34 6.1 °C 5.4 °C 1017.8 hPa North 13 km/h 6.6 km/h 95 % 0 mm
05:39 6.1 °C 5.4 °C 1017.8 hPa North 9.3 km/h 5.6 km/h 95 % 0 mm
05:44 6.1 °C 5.3 °C 1017.8 hPa North 11.3 km/h 10 km/h 95 % 0 mm
05:49 6 °C 5.3 °C 1017.5 hPa North 9.3 km/h 7.4 km/h 95 % 0 mm
05:54 5.9 °C 5.2 °C 1017.5 hPa North 5.6 km/h 5.5 km/h 95 % 0 mm
05:59 5.9 °C 5.2 °C 1017.5 hPa North 11.1 km/h 6.6 km/h 95 % 0 mm
06:04 5.9 °C 5.2 °C 1017.5 hPa North 9.3 km/h 5.3 km/h 95 % 0 mm
06:09 5.9 °C 5.2 °C 1017.5 hPa North 11.3 km/h 7.2 km/h 95 % 0 mm
06:14 5.9 °C 5.2 °C 1017.5 hPa North 18.5 km/h 8.9 km/h 95 % 0 mm
06:19 5.8 °C 5.1 °C 1017.5 hPa North 13 km/h 10.1 km/h 95 % 0 mm
06:24 5.8 °C 5.2 °C 1017.5 hPa North 16.7 km/h 13.2 km/h 96 % 0 mm
06:29 5.8 °C 5.2 °C 1017.5 hPa North 16.7 km/h 7.9 km/h 96 % 0 mm
06:34 5.8 °C 5.2 °C 1017.5 hPa North 13 km/h 13.5 km/h 96 % 0 mm
06:39 5.8 °C 5.2 °C 1017.5 hPa North 18.5 km/h 10.1 km/h 96 % 0 mm
06:44 5.7 °C 5.7 °C 1017.5 hPa North 14.5 km/h 10.5 km/h 100 % 0 mm
06:49 5.8 °C 5.2 °C 1017.5 hPa North 16.7 km/h 11.3 km/h 96 % 0 mm
06:54 5.8 °C 5.2 °C 1017.5 hPa North 11.1 km/h 9.7 km/h 96 % 0 mm
06:59 5.8 °C 5.2 °C 1017.5 hPa North 14.8 km/h 9.2 km/h 96 % 0 mm
07:04 5.8 °C 5.2 °C 1017.8 hPa North 11.1 km/h 8.5 km/h 96 % 0 mm
07:09 5.9 °C 5.3 °C 1017.8 hPa North 13 km/h 8.5 km/h 96 % 0 mm
07:14 5.9 °C 5.3 °C 1017.8 hPa North 14.8 km/h 12.7 km/h 96 % 0 mm
07:19 5.9 °C 5.3 °C 1017.8 hPa North 27.8 km/h 17.1 km/h 96 % 0 mm
07:24 5.8 °C 5.8 °C 1017.8 hPa North 18.5 km/h 8.4 km/h 100 % 0 mm
07:29 5.8 °C 5.2 °C 1017.8 hPa North 14.8 km/h 9.3 km/h 96 % 0 mm
07:34 5.7 °C 5.1 °C 1017.8 hPa North 13 km/h 8.4 km/h 96 % 0 mm
07:39 5.7 °C 5.1 °C 1017.8 hPa North 16.7 km/h 9.7 km/h 96 % 0 mm
07:41 5.7 °C 5.1 °C 1017.8 hPa North 18.5 km/h 8.7 km/h 96 % 0 mm
07:54 5.4 °C 4.7 °C 1017.8 hPa North 18.5 km/h 18.5 km/h 95 % 0 mm
07:59 5.4 °C 4.8 °C 1017.8 hPa North 5.6 km/h 3.7 km/h 96 % 0 mm
08:04 5.4 °C 4.8 °C 1017.8 hPa North 5.6 km/h 5.1 km/h 96 % 0 mm
08:09 5.4 °C 4.8 °C 1017.8 hPa North 5.6 km/h 2.6 km/h 96 % 0 mm
08:14 5.3 °C 4.7 °C 1017.8 hPa North 5.6 km/h 4.5 km/h 96 % 0 mm
08:19 5.3 °C 4.7 °C 1017.8 hPa North 5.6 km/h 4.8 km/h 96 % 0 mm
08:24 5.3 °C 4.6 °C 1017.8 hPa North 11.1 km/h 8.5 km/h 95 % 0 mm
08:29 5.2 °C 4.5 °C 1017.8 hPa North 7.4 km/h 5.8 km/h 95 % 0 mm
08:34 5.2 °C 4.4 °C 1017.8 hPa North 5.6 km/h 5.6 km/h 95 % 0 mm
08:39 5.2 °C 4.4 °C 1017.8 hPa North 9.7 km/h 6 km/h 95 % 0 mm
08:44 5.2 °C 4.4 °C 1017.8 hPa North 11.1 km/h 11.1 km/h 95 % 0 mm
08:49 5.2 °C 4.4 °C 1017.8 hPa North 9.3 km/h 9.3 km/h 95 % 0 mm
08:54 5.2 °C 4.5 °C 1017.8 hPa North 13 km/h 10.1 km/h 95 % 0 mm
08:59 5.2 °C 4.5 °C 1017.8 hPa North 9.3 km/h 7.9 km/h 95 % 0 mm
09:04 5.2 °C 4.5 °C 1017.8 hPa North 14.8 km/h 8.7 km/h 95 % 0 mm
09:09 5.3 °C 4.6 °C 1017.8 hPa North 11.3 km/h 10.3 km/h 95 % 0 mm
09:14 5.3 °C 4.6 °C 1017.5 hPa North 16.7 km/h 9.8 km/h 95 % 0 mm
09:19 5.4 °C 4.7 °C 1017.5 hPa North 14.8 km/h 9.5 km/h 95 % 0 mm
09:24 5.4 °C 4.7 °C 1017.5 hPa North 11.1 km/h 6.8 km/h 95 % 0 mm
09:29 5.7 °C 4.9 °C 1017.5 hPa North 13 km/h 6.6 km/h 95 % 0 mm
09:34 5.9 °C 5.2 °C 1017.5 hPa North 16.7 km/h 11.3 km/h 95 % 0 mm
09:39 6.2 °C 5.3 °C 1017.5 hPa North 11.1 km/h 8.9 km/h 94 % 0 mm
09:44 6.3 °C 5.3 °C 1017.5 hPa North 18.5 km/h 10 km/h 93 % 0 mm
09:49 6.4 °C 5.3 °C 1017.5 hPa North 24.1 km/h 16.9 km/h 93 % 0.25 mm
09:54 6.4 °C 5.2 °C 1017.5 hPa North 22.2 km/h 9.5 km/h 92 % 0.25 mm
09:59 6.4 °C 5.2 °C 1017.5 hPa North 18.5 km/h 9.2 km/h 92 % 0.25 mm
10:04 6.5 °C 5.3 °C 1017.5 hPa North 22.2 km/h 10.9 km/h 92 % 0.25 mm
10:09 6.5 °C 5.3 °C 1017.5 hPa North 18.5 km/h 14 km/h 92 % 0.25 mm
10:14 6.6 °C 5.2 °C 1017.5 hPa North 20.4 km/h 15.4 km/h 91 % 0.25 mm
10:19 6.7 °C 5.3 °C 1017.5 hPa NNE 27.8 km/h 11.4 km/h 91 % 0.25 mm
10:24 6.8 °C 5.3 °C 1017.5 hPa NNE 22.2 km/h 14.8 km/h 90 % 0.25 mm
10:29 6.9 °C 5.4 °C 1017.5 hPa North 18.5 km/h 9.7 km/h 90 % 0.25 mm
10:34 7.2 °C 5.6 °C 1017.5 hPa North 20.4 km/h 16.7 km/h 90 % 0.25 mm
10:39 7.3 °C 5.6 °C 1017.5 hPa NNW 18.5 km/h 11.7 km/h 89 % 0.25 mm
10:44 7.3 °C 6.1 °C 1017.5 hPa North 20.4 km/h 18.3 km/h 92 % 0.25 mm
10:49 7.5 °C 5.5 °C 1017.5 hPa North 22.2 km/h 14.8 km/h 87 % 0 mm
10:54 7.6 °C 5.6 °C 1017.2 hPa North 14.8 km/h 10 km/h 87 % 0 mm
10:59 7.7 °C 5.5 °C 1017.2 hPa NNW 22.2 km/h 17.7 km/h 86 % 0 mm
11:04 8.1 °C 6 °C 1017.2 hPa North 18.5 km/h 12.1 km/h 87 % 0 mm
11:09 8.5 °C 6.1 °C 1017.2 hPa North 16.7 km/h 13.8 km/h 85 % 0 mm
11:14 8.8 °C 6.2 °C 1017.2 hPa North 24.1 km/h 15.8 km/h 84 % 0 mm
11:19 8.7 °C 5.7 °C 1017.2 hPa North 27.8 km/h 16.9 km/h 81 % 0 mm
11:24 8.8 °C 5.7 °C 1017.2 hPa NNW 27.8 km/h 11.9 km/h 81 % 0 mm
11:29 8.9 °C 5.8 °C 1017.2 hPa North 16.7 km/h 13 km/h 81 % 0 mm
11:34 9.1 °C 6 °C 1016.8 hPa North 20.4 km/h 14 km/h 81 % 0 mm
11:39 9.3 °C 6.1 °C 1016.8 hPa NNW 11.1 km/h 8.4 km/h 80 % 0 mm
11:44 9.3 °C 5.8 °C 1016.8 hPa North 18.5 km/h 14.8 km/h 79 % 0 mm
11:49 9.4 °C 5.9 °C 1016.5 hPa North 18.5 km/h 11.9 km/h 79 % 0 mm
11:54 9.6 °C 5.9 °C 1016.5 hPa North 14.8 km/h 9.7 km/h 78 % 0 mm
11:59 9.8 °C 5.7 °C 1016.5 hPa North 18.5 km/h 10.3 km/h 76 % 0 mm
12:04 9.7 °C 5.4 °C 1016.5 hPa North 24.1 km/h 17.7 km/h 75 % 0 mm
12:09 9.6 °C 5.4 °C 1016.5 hPa North 18.5 km/h 11.6 km/h 75 % 0 mm
12:14 9.6 °C 5.6 °C 1016.1 hPa North 18.5 km/h 13.2 km/h 76 % 0 mm
12:19 9.6 °C 5.6 °C 1016.1 hPa North 18.5 km/h 11.4 km/h 76 % 0 mm
12:24 9.8 °C 5.7 °C 1016.1 hPa NE 20.4 km/h 15.9 km/h 76 % 0 mm
12:29 9.9 °C 5.7 °C 1016.1 hPa NNE 25.9 km/h 15.1 km/h 75 % 0 mm
12:34 10.1 °C 5.9 °C 1016.1 hPa North 20.4 km/h 16.9 km/h 75 % 0 mm
12:39 10.3 °C 5.8 °C 1015.8 hPa North 18.5 km/h 11.1 km/h 74 % 0 mm
12:44 10.3 °C 5.7 °C 1015.8 hPa NNE 32.2 km/h 24 km/h 73 % 0 mm
12:49 10.3 °C 5.5 °C 1015.5 hPa North 25.9 km/h 16.7 km/h 72 % 0 mm
12:54 10.3 °C 5.5 °C 1015.5 hPa North 20.4 km/h 16.9 km/h 72 % 0 mm
12:59 10.3 °C 5.5 °C 1015.5 hPa North 24.1 km/h 15.6 km/h 72 % 0 mm
13:04 10.4 °C 5.4 °C 1015.1 hPa North 31.5 km/h 17.2 km/h 71 % 0 mm
13:09 10.7 °C 5.6 °C 1015.1 hPa North 31.5 km/h 19.2 km/h 71 % 0 mm
13:14 10.8 °C 5.9 °C 1015.1 hPa NNW 19.3 km/h 13.8 km/h 72 % 0 mm
13:19 11.1 °C 6 °C 1015.1 hPa NNE 19.3 km/h 10.9 km/h 71 % 0 mm
13:24 11.3 °C 6 °C 1014.8 hPa North 24.1 km/h 20.8 km/h 70 % 0 mm
13:29 11.3 °C 5.8 °C 1014.8 hPa North 31.5 km/h 18.8 km/h 69 % 0 mm
13:34 11.4 °C 5.9 °C 1014.8 hPa North 27.8 km/h 15.1 km/h 69 % 0 mm
13:39 11.3 °C 5.8 °C 1014.8 hPa North 24.1 km/h 15.1 km/h 69 % 0 mm
13:44 11.3 °C 6 °C 1014.8 hPa NNE 24.1 km/h 16.7 km/h 70 % 0 mm
13:49 11.4 °C 6.2 °C 1014.8 hPa North 20.4 km/h 16.3 km/h 70 % 0 mm
13:54 11.6 °C 6.1 °C 1014.4 hPa North 31.5 km/h 21.9 km/h 69 % 0 mm
13:59 11.6 °C 6.1 °C 1014.4 hPa North 27.8 km/h 14.8 km/h 69 % 0 mm
14:04 11.6 °C 6.1 °C 1014.4 hPa North 29.6 km/h 19.3 km/h 69 % 0 mm
14:09 11.7 °C 6.2 °C 1014.4 hPa North 22.2 km/h 11.3 km/h 69 % 0 mm
14:14 11.7 °C 5.9 °C 1014.4 hPa North 20.4 km/h 15.6 km/h 68 % 0 mm
14:19 11.6 °C 5.6 °C 1014.1 hPa North 29.6 km/h 19.3 km/h 67 % 0 mm
14:24 11.7 °C 5.8 °C 1014.1 hPa NNE 33.8 km/h 21.6 km/h 67 % 0 mm
14:29 11.8 °C 5.7 °C 1014.1 hPa North 27.8 km/h 17.5 km/h 66 % 0 mm
14:34 11.9 °C 5.7 °C 1014.1 hPa NNE 29.6 km/h 18.2 km/h 66 % 0 mm
14:39 12 °C 5.8 °C 1014.1 hPa NNE 27.8 km/h 21.2 km/h 66 % 0 mm
14:44 11.7 °C 5.6 °C 1014.1 hPa North 27.8 km/h 16.7 km/h 66 % 0 mm
14:49 11.5 °C 5.6 °C 1014.1 hPa NNW 25.9 km/h 15 km/h 67 % 0 mm
14:54 11.4 °C 5.5 °C 1014.1 hPa North 20.4 km/h 21.2 km/h 67 % 0 mm
14:59 11.5 °C 5.6 °C 1014.1 hPa North 27.8 km/h 16.9 km/h 67 % 0 mm
15:04 11.6 °C 5.6 °C 1014.1 hPa North 29.6 km/h 20.9 km/h 67 % 0 mm
15:09 11.7 °C 5.7 °C 1013.8 hPa NNE 29.6 km/h 10 km/h 67 % 0 mm
15:14 11.7 °C 5.7 °C 1013.8 hPa North 27.8 km/h 11.7 km/h 67 % 0 mm
15:19 11.9 °C 6.2 °C 1013.8 hPa North 16.7 km/h 10.5 km/h 68 % 0 mm
15:24 11.8 °C 5.7 °C 1013.8 hPa North 27.8 km/h 20.8 km/h 66 % 0 mm
15:29 11.5 °C 5.8 °C 1013.8 hPa North 16.7 km/h 11.4 km/h 68 % 0 mm
15:34 11.5 °C 5.8 °C 1013.8 hPa North 25.9 km/h 20.9 km/h 68 % 0 mm
15:39 11.4 °C 5.5 °C 1013.8 hPa North 31.5 km/h 19.3 km/h 67 % 0 mm
15:44 11.6 °C 6.1 °C 1013.8 hPa North 18.5 km/h 12.2 km/h 69 % 0 mm
15:49 11.6 °C 5.8 °C 1013.8 hPa North 29.6 km/h 20.1 km/h 68 % 0 mm
15:54 11.3 °C 5.6 °C 1013.8 hPa NNW 20.4 km/h 15.8 km/h 68 % 0 mm
15:59 11 °C 5.5 °C 1013.8 hPa North 27.8 km/h 17.7 km/h 69 % 0 mm
16:04 10.8 °C 5.4 °C 1013.8 hPa NNE 29.6 km/h 18.2 km/h 69 % 0 mm
16:09 10.7 °C 5.4 °C 1013.8 hPa North 18.5 km/h 14 km/h 70 % 0 mm
16:14 10.6 °C 5.4 °C 1013.8 hPa North 22.2 km/h 13.2 km/h 70 % 0 mm
16:19 10.6 °C 5.5 °C 1013.8 hPa NNE 20.4 km/h 14.2 km/h 71 % 0 mm
16:24 10.6 °C 5.6 °C 1013.8 hPa North 18.5 km/h 11.3 km/h 71 % 0 mm
16:29 10.6 °C 5.4 °C 1013.8 hPa NNE 14.8 km/h 11.4 km/h 70 % 0 mm
16:34 10.7 °C 5.4 °C 1013.8 hPa North 18.5 km/h 13.2 km/h 70 % 0 mm
16:39 10.6 °C 5.4 °C 1013.8 hPa North 18.5 km/h 12.6 km/h 70 % 0 mm
16:44 10.6 °C 5.3 °C 1013.8 hPa North 14.8 km/h 9.5 km/h 70 % 0 mm
16:49 10.4 °C 5.2 °C 1013.4 hPa NNE 18.5 km/h 14.3 km/h 70 % 0 mm
16:54 10.3 °C 5.1 °C 1013.4 hPa NNE 24.1 km/h 19.8 km/h 70 % 0 mm
16:59 10.3 °C 5.2 °C 1013.4 hPa NNE 20.4 km/h 10 km/h 71 % 0 mm
17:04 10.2 °C 5.2 °C 1013.4 hPa NNE 16.7 km/h 7.6 km/h 71 % 0 mm
17:09 10.1 °C 5.1 °C 1013.4 hPa NNE 18.5 km/h 14.2 km/h 71 % 0 mm
17:14 10.1 °C 5.3 °C 1013.4 hPa NNE 24.1 km/h 10 km/h 72 % 0 mm
17:19 10.1 °C 5.2 °C 1013.4 hPa NNE 18.5 km/h 11.7 km/h 72 % 0 mm
17:24 10 °C 5.2 °C 1013.4 hPa North 20.9 km/h 15.3 km/h 72 % 0 mm
17:29 9.9 °C 5.3 °C 1013.1 hPa NNE 16.7 km/h 13.2 km/h 73 % 0 mm
17:34 9.9 °C 5.3 °C 1013.1 hPa NNE 20.4 km/h 14.2 km/h 73 % 0 mm
17:39 9.8 °C 5 °C 1013.1 hPa NNE 25.9 km/h 17.4 km/h 72 % 0 mm
17:44 9.8 °C 5 °C 1013.1 hPa NNE 27.8 km/h 15.9 km/h 72 % 0 mm
17:49 9.8 °C 4.9 °C 1013.1 hPa NNE 18.5 km/h 14.8 km/h 72 % 0 mm
17:54 9.7 °C 4.8 °C 1013.1 hPa North 29.6 km/h 17.4 km/h 72 % 0 mm
17:59 9.6 °C 5 °C 1013.1 hPa North 25.9 km/h 16.7 km/h 73 % 0 mm
18:04 9.6 °C 5 °C 1013.1 hPa NNE 27.8 km/h 20.1 km/h 73 % 0 mm
18:09 9.6 °C 4.9 °C 1013.1 hPa NNE 16.7 km/h 15.6 km/h 73 % 0 mm
18:14 9.4 °C 5.1 °C 1013.1 hPa NNE 25.7 km/h 15.8 km/h 74 % 0 mm
18:19 9.3 °C 4.9 °C 1013.1 hPa NNE 16.1 km/h 16.1 km/h 74 % 0 mm
18:24 9.3 °C 5.1 °C 1013.1 hPa NNE 18.5 km/h 15.4 km/h 75 % 0 mm
18:29 9.2 °C 5 °C 1013.1 hPa North 22.2 km/h 16.9 km/h 75 % 0 mm
18:34 9.2 °C 4.9 °C 1013.1 hPa NNE 13 km/h 11.6 km/h 75 % 0 mm
18:39 9.1 °C 4.8 °C 1013.1 hPa NNE 20.4 km/h 14.5 km/h 75 % 0 mm
18:44 9.1 °C 4.8 °C 1013.4 hPa North 25.9 km/h 12.6 km/h 75 % 0 mm
18:49 9.1 °C 4.8 °C 1013.1 hPa NNE 20.4 km/h 12.1 km/h 75 % 0 mm
18:54 9.1 °C 4.8 °C 1013.4 hPa NNE 22.2 km/h 13.2 km/h 75 % 0 mm
18:59 9.1 °C 4.8 °C 1013.4 hPa NNE 27.8 km/h 18.3 km/h 75 % 0 mm
19:04 9 °C 5 °C 1013.4 hPa North 25.9 km/h 17.7 km/h 76 % 0 mm
19:09 8.9 °C 4.9 °C 1013.4 hPa North 24.1 km/h 14.5 km/h 76 % 0 mm
19:14 8.9 °C 4.9 °C 1013.4 hPa North 25.9 km/h 15.9 km/h 76 % 0 mm
19:19 8.9 °C 5.1 °C 1013.4 hPa North 24.1 km/h 15.8 km/h 77 % 0 mm
19:24 8.8 °C 5 °C 1013.8 hPa North 22.5 km/h 19 km/h 77 % 0 mm
19:29 8.8 °C 5 °C 1013.8 hPa NE 37 km/h 15.8 km/h 77 % 0 mm
19:34 8.8 °C 4.9 °C 1013.8 hPa North 24.1 km/h 12.6 km/h 77 % 0 mm
19:39 8.8 °C 5.2 °C 1013.8 hPa North 29.6 km/h 16.7 km/h 78 % 0 mm
19:44 8.8 °C 5.2 °C 1013.8 hPa North 27.8 km/h 15 km/h 78 % 0 mm
19:49 8.8 °C 5.2 °C 1013.8 hPa North 25.9 km/h 11.7 km/h 78 % 0 mm
19:54 8.8 °C 5.2 °C 1013.8 hPa NE 22.2 km/h 13.5 km/h 78 % 0 mm
19:59 8.8 °C 5.2 °C 1013.8 hPa NNE 20.4 km/h 16.4 km/h 78 % 0 mm
20:04 8.8 °C 5.4 °C 1014.1 hPa North 14.8 km/h 12.7 km/h 79 % 0 mm
20:09 8.9 °C 5.4 °C 1013.8 hPa NNE 25.7 km/h 18 km/h 79 % 0 mm
20:14 8.9 °C 5.4 °C 1013.8 hPa NNE 27.8 km/h 14.8 km/h 79 % 0 mm
20:19 8.8 °C 5.6 °C 1013.8 hPa North 18.5 km/h 17.2 km/h 80 % 0 mm
20:24 8.8 °C 5.7 °C 1013.8 hPa North 16.7 km/h 11.3 km/h 81 % 0 mm
20:29 8.7 °C 5.8 °C 1013.8 hPa North 22.2 km/h 20.1 km/h 82 % 0 mm
20:34 8.7 °C 5.8 °C 1013.8 hPa NNE 31.5 km/h 12.4 km/h 82 % 0 mm
20:39 8.6 °C 5.9 °C 1013.8 hPa North 20.4 km/h 13.2 km/h 83 % 0 mm
20:44 8.7 °C 5.9 °C 1014.1 hPa NNE 24.1 km/h 15.6 km/h 83 % 0 mm
20:49 8.6 °C 5.9 °C 1013.8 hPa NNE 20.9 km/h 17.4 km/h 83 % 0 mm
20:54 8.6 °C 5.8 °C 1013.8 hPa North 22.2 km/h 10.9 km/h 83 % 0 mm
20:59 8.6 °C 5.8 °C 1014.1 hPa NNE 12.9 km/h 8.5 km/h 83 % 0.25 mm
21:04 8.4 °C 5.9 °C 1013.8 hPa NNW 22.2 km/h 12.9 km/h 84 % 0.25 mm
21:09 8.4 °C 5.8 °C 1013.8 hPa North 22.2 km/h 16.6 km/h 84 % 0.25 mm
21:14 8.4 °C 6 °C 1013.8 hPa North 18.5 km/h 12.4 km/h 85 % 0.25 mm
21:19 8.3 °C 5.9 °C 1013.8 hPa North 14.8 km/h 13.7 km/h 85 % 0.25 mm
21:24 8.3 °C 5.9 °C 1013.8 hPa North 14.8 km/h 9.7 km/h 85 % 0.25 mm
21:29 8.3 °C 5.9 °C 1013.8 hPa North 20.4 km/h 9 km/h 85 % 0.25 mm
21:34 8.3 °C 5.9 °C 1013.8 hPa North 22.2 km/h 12.7 km/h 85 % 0.25 mm
21:39 8.3 °C 6.1 °C 1013.8 hPa NNW 14.5 km/h 10.9 km/h 86 % 0.51 mm
21:44 8.2 °C 6 °C 1013.8 hPa North 18.5 km/h 7.6 km/h 86 % 0.51 mm
21:49 8.2 °C 5.9 °C 1013.8 hPa North 16.7 km/h 9.7 km/h 86 % 0.51 mm
21:54 8.1 °C 6.1 °C 1013.8 hPa North 14.8 km/h 8.2 km/h 87 % 0.51 mm
21:59 8.1 °C 6.1 °C 1013.8 hPa North 18.5 km/h 8.2 km/h 87 % 0.51 mm
22:04 8.2 °C 6.1 °C 1013.8 hPa North 14.8 km/h 9.5 km/h 87 % 0.51 mm
22:09 8.2 °C 6.2 °C 1013.8 hPa NNW 18.5 km/h 10.8 km/h 87 % 0.51 mm
22:14 8.2 °C 6.2 °C 1013.8 hPa NW 18.5 km/h 11.1 km/h 87 % 0.51 mm
22:19 8.1 °C 6.1 °C 1013.8 hPa North 24.1 km/h 12.6 km/h 87 % 0.51 mm
22:24 8 °C 5.9 °C 1013.8 hPa NNW 24.1 km/h 13 km/h 87 % 0.51 mm
22:29 7.9 °C 6 °C 1013.8 hPa North 16.7 km/h 12.4 km/h 88 % 0.76 mm
22:34 7.8 °C 5.9 °C 1013.8 hPa North 20.4 km/h 14 km/h 88 % 0.76 mm
22:39 7.7 °C 6 °C 1013.8 hPa NNW 18.5 km/h 10.5 km/h 89 % 0.51 mm
22:44 7.6 °C 5.9 °C 1013.4 hPa North 17.7 km/h 14.2 km/h 89 % 0.51 mm
22:49 7.4 °C 5.7 °C 1013.4 hPa North 18.5 km/h 10.8 km/h 89 % 0.51 mm
22:54 7.4 °C 5.8 °C 1013.4 hPa North 20.4 km/h 14.6 km/h 90 % 0.51 mm
22:59 7.3 °C 5.8 °C 1013.4 hPa North 18.5 km/h 16.4 km/h 90 % 0.51 mm
23:04 7.3 °C 5.6 °C 1013.4 hPa North 18.5 km/h 15.9 km/h 89 % 0.51 mm
23:09 7.2 °C 5.6 °C 1013.4 hPa North 24.1 km/h 12.1 km/h 89 % 0.51 mm
23:14 7.2 °C 5.6 °C 1013.1 hPa North 20.4 km/h 8.9 km/h 89 % 0.51 mm
23:19 7.2 °C 5.6 °C 1013.1 hPa North 18.5 km/h 13 km/h 90 % 0.51 mm
23:24 7.2 °C 5.7 °C 1013.1 hPa North 16.7 km/h 12.9 km/h 90 % 0.25 mm
23:29 7.2 °C 5.6 °C 1013.1 hPa NNE 18.5 km/h 9.8 km/h 90 % 0 mm
23:34 7.1 °C 5.6 °C 1013.1 hPa North 18.5 km/h 16.7 km/h 90 % 0 mm
23:39 7.1 °C 5.6 °C 1013.1 hPa North 20.4 km/h 10.6 km/h 90 % 0 mm
23:44 7.1 °C 5.6 °C 1012.8 hPa NNW 16.7 km/h 8.4 km/h 90 % 0 mm
23:45 7.1 °C 5.6 °C 1012.8 hPa North 19.3 km/h 10.3 km/h 90 % 0 mm
23:54 7 °C 5.4 °C 1012.8 hPa North 17.7 km/h 16.7 km/h 90 % 0 mm
23:59 6.9 °C 5.4 °C 1012.8 hPa North 18.5 km/h 14.8 km/h 90 % 0 mm
Ararat Weather
Compliments of Weather Underground - 2.25 mb
Click here to send mail.


ABOUT

Live weather data from Ararat, Victoria, Australia, 3377
Data uploaded from Cumulus every 5 minutes to Weather Underground.
This site then downloads the raw data for formatting and display.
Metric and imperial data can be displayed. Graphs and historical data available.
Includes Sun and Moon times and rain image live from BOM.

Check out Ararat Weather on Facebook, Twitter and Google +

Help support ongoing costs by checking out the ads





Follow @AraratWeather